NEODyS-2

Near Earth Objects - Dynamic Site
NEODyS ∴ Observatories ∴ Site 691 ∴ Obs & residuals
Contact »
691  ▹ 
OBSERVATIONS AND RESIDUALS

691-Steward Observatory, Kitt Peak-Spacewatch

Detections | Residuals | Detections & Residuals

[1-200] [201-400] [401-600] [601-800] [801-1000] [1001-1200] [1201-1400] [1401-1600] [1601-1800] [1801-2000] [2001-2200] [2201-2400] [2401-2600] [2601-2800] [2801-3000] [3001-3200] [3201-3400] [3401-3600] [3601-3800] [3801-4000] [4001-4200] [4201-4400] [4401-4600] [4601-4800] [4801-5000] [5001-5200] [5201-5400] [5401-5600] [5601-5800] [5801-6000] [6001-6200] [6201-6400] [6401-6600] [6601-6800] [6801-7000] [7001-7200] [7201-7400] [7401-7600] [7601-7800] [7801-8000] [8001-8200] [8201-8400] [8401-8600] [8601-8800] [8801-9000] [9001-9200] [9201-9400] [9401-9600] [9601-9800] [9801-10000] [10001-10200] [10201-10400] [10401-10600] [10601-10800] [10801-11000] [11001-11200] [11201-11400] [11401-11600] [11601-11800] [11801-12000] [12001-12200] [12201-12400] [12401-12600] [12601-12800] [12801-13000] [13001-13200] [13201-13400] [13401-13600] [13601-13800] [13801-14000] [14001-14200] [14201-14400] [14401-14600] [14601-14800] [14801-15000] [15001-15200] [15201-15400] [15401-15600] [15601-15800] [15801-16000] [16001-16200] [16201-16400] [16401-16600] [16601-16800] [16801-17000] [17001-17200] [17201-17400] [17401-17600] [17601-17800] [17801-18000] [18001-18200] [18201-18400] [18401-18600] [18601-18800] [18801-19000] [19001-19200] [19201-19400] [19401-19600] [19601-19800] [19801-20000] [20001-20200] [20201-20400] [20401-20600] [20601-20800] [20801-21000] [21001-21200] [21201-21400] [21401-21600] [21601-21800] [21801-22000] [22001-22200] [22201-22400] [22401-22600] [22601-22800] [22801-23000] [23001-23200] [23201-23400] [23401-23600] [23601-23800] [23801-24000] [24001-24200] [24201-24400] [24401-24600] [24601-24800] [24801-25000] [25001-25200] [25201-25400] [25401-25600] [25601-25800] [25801-26000] [26001-26200] [26201-26400] [26401-26600] [26601-26800] [26801-27000] [27001-27200] [27201-27400] [27401-27600] [27601-27800] [27801-28000] [28001-28200] [28201-28400] [28401-28600] [28601-28800] [28801-29000] [29001-29200] [29201-29400] [29401-29600] [29601-29800] [29801-30000] [30001-30200] [30201-30400] [30401-30600] [30601-30800] [30801-31000] [31001-31200] [31201-31400] [31401-31600] [31601-31800] [31801-32000] [32001-32200] [32201-32400] [32401-32600] [32601-32800] [32801-33000] [33001-33200] [33201-33400] [33401-33600] [33601-33800] [33801-34000] [34001-34200] [34201-34400] [34401-34600] [34601-34800] [34801-35000] [35001-35200] [35201-35400] [35401-35600] [35601-35800] [35801-36000] [36001-36200] [36201-36400] [36401-36600] [36601-36800] [36801-37000] [37001-37200] [37201-37400] [37401-37600] [37601-37800] [37801-38000] [38001-38200] [38201-38400] [38401-38600] [38601-38800] [38801-39000] [39001-39200] [39201-39400] [39401-39600] [39601-39800] [39801-40000] [40001-40200] [40201-40400] [40401-40600] [40601-40800] [40801-41000] [41001-41200] [41201-41400] [41401-41600] [41601-41800] [41801-42000] [42001-42200] [42201-42400] [42401-42600] [42601-42800] [42801-43000] [43001-43200] [43201-43400] [43401-43600] [43601-43800] [43801-44000] [44001-44200] [44201-44400] [44401-44600] [44601-44800] [44801-45000] [45001-45200] [45201-45400] [45401-45600] [45601-45800] [45801-46000] [46001-46200] [46201-46400] [46401-46600] [46601-46800] [46801-47000] [47001-47200] [47201-47400] [47401-47600] [47601-47800] [47801-48000] [48001-48200] [48201-48400] [48401-48600] [48601-48800] [48801-49000] [49001-49200] [49201-49400] [49401-49600] [49601-49800] [49801-50000] [50001-50200] [50201-50400] [50401-50600] [50601-50741]

Designation T Tech N Date Right Ascension Declination Apparent Magnitude Star Catalog Site code χ Used A Used M
yr-mo-day precision hr:min:sec precision rms F bias residual deg min sec precision rms F bias residual mag/col rms residual
2002VU94 O C 2008-10-31.16230 1.000E-05 02:41:38.130 1.500E-01 0.500 F -0.327 -0.181 +17° 10' 26.80" 1.000E-01 0.500 F 0.264 0.089 o 691 0.40 Yes No
2008UO90 O C 2008-10-31.17634 1.000E-05 02:49:31.250 1.500E-01 0.500 F -0.208 -0.129 +16° 23' 01.90" 1.000E-01 0.500 F 0.283 -0.268 o 691 0.60 Yes No
2008UO90 O C 2008-10-31.19400 1.000E-05 02:49:29.960 1.500E-01 0.500 F -0.208 -0.037 +16° 22' 49.00" 1.000E-01 0.500 F 0.283 0.128 o 691 0.27 Yes No
2008UO90 O C 2008-10-31.21164 1.000E-05 02:49:28.670 1.500E-01 0.500 F -0.208 0.129 +16° 22' 36.10" 1.000E-01 0.500 F 0.283 0.536 o 691 1.11 Yes No
2007JJ35 O C H 2008-10-31.28476 1.000E-05 03:51:52.040 1.500E-01 0.500 F -0.111 0.217 +21° 14' 49.40" 1.000E-01 0.500 F 0.139 -0.022 21.1 V 0.70 0.01 o 691 0.44 Yes Yes
2007JJ35 O C H 2008-10-31.32020 1.000E-05 03:51:48.370 1.500E-01 0.500 F -0.111 0.277 +21° 13' 47.10" 1.000E-01 0.500 F 0.139 0.635 21.1 V 0.70 0.01 o 691 1.39 Yes Yes
2002VY94 O C 2008-10-31.33855 1.000E-05 04:16:26.410 1.500E-01 0.500 F -0.192 -0.055 +33° 25' 43.30" 1.000E-01 0.500 F 0.231 -0.208 o 691 0.43 Yes No
2008TD2 O C 2008-10-31.34870 1.000E-05 04:16:52.500 1.500E-01 0.500 F -0.120 -0.087 +30° 07' 33.50" 1.000E-01 0.500 F 0.129 -0.057 o 691 0.21 Yes No
2002VY94 O C 2008-10-31.35629 1.000E-05 04:16:25.720 1.500E-01 0.500 F -0.192 -0.211 +33° 25' 44.20" 1.000E-01 0.500 F 0.231 -0.125 o 691 0.49 Yes No
2008TD2 O C 2008-10-31.36644 1.000E-05 04:16:49.940 1.500E-01 0.500 F -0.120 0.444 +30° 07' 39.00" 1.000E-01 0.500 F 0.129 0.029 o 691 0.91 Yes No
2002VY94 O C 2008-10-31.37406 1.000E-05 04:16:25.070 1.500E-01 0.500 F -0.192 0.168 +33° 25' 46.60" 1.000E-01 0.500 F 0.231 1.503 o 691 3.03 Yes No
2008TD2 O C 2008-10-31.38490 1.000E-05 04:16:47.150 1.500E-01 0.500 F -0.120 -0.610 +30° 07' 45.30" 1.000E-01 0.500 F 0.129 0.891 o 691 2.20 Yes No
2005YS165 O C 2008-10-31.46156 1.000E-05 09:57:03.910 1.500E-01 0.500 F 0.099 1.021 +13° 40' 02.80" 1.000E-01 0.500 F 0.203 0.062 o 691 2.08 Yes No
2005YS165 O C 2008-10-31.47180 1.000E-05 09:57:06.670 1.500E-01 0.500 F 0.099 -0.482 +13° 40' 15.90" 1.000E-01 0.500 F 0.203 -0.035 o 691 0.98 Yes No
2005YS165 O C 2008-10-31.48203 1.000E-05 09:57:09.550 1.500E-01 0.500 F 0.099 -0.170 +13° 40' 29.40" 1.000E-01 0.500 F 0.203 0.286 o 691 0.67 Yes No
2008SE O C 2008-11-01.15904 1.000E-05 02:49:32.880 1.500E-01 0.500 F -0.193 -0.063 +13° 29' 17.70" 1.000E-01 0.500 F 0.183 -0.250 17.7 V 0.70 0.24 o 691 0.52 Yes Yes
2008SE O C 2008-11-01.17672 1.000E-05 02:49:33.980 1.500E-01 0.500 F -0.193 0.075 +13° 28' 46.60" 1.000E-01 0.500 F 0.183 -0.284 18.0 V 0.70 0.54 o 691 0.59 Yes Yes
2008SE O C 2008-11-01.19201 1.000E-05 02:49:34.900 1.500E-01 0.500 F -0.193 -0.043 +13° 28' 19.70" 1.000E-01 0.500 F 0.183 -0.285 18.1 V 0.70 0.64 o 691 0.58 Yes Yes
2005UP156 O C 2008-11-01.21130 1.000E-05 03:05:17.150 1.500E-01 0.500 F -0.194 -0.074 +13° 20' 27.70" 1.000E-01 0.500 F 0.154 0.132 19.5 V 0.70 -0.09 o 691 0.30 Yes Yes
2005UP156 O C 2008-11-01.22897 1.000E-05 03:05:15.590 1.500E-01 0.500 F -0.194 -0.716 +13° 20' 18.50" 1.000E-01 0.500 F 0.154 -1.043 19.3 V 0.70 -0.29 o 691 2.53 Yes Yes
2005UP156 O C 2008-11-01.24665 1.000E-05 03:05:14.090 1.500E-01 0.500 F -0.194 -0.424 +13° 20' 11.50" 1.000E-01 0.500 F 0.154 0.000 19.4 V 0.70 -0.19 o 691 0.85 Yes Yes
2001HG31 O C H 2008-11-01.27609 1.000E-05 03:27:19.310 1.500E-01 0.500 F -0.189 -0.266 +21° 15' 29.70" 1.000E-01 0.500 F 0.302 0.257 16.4 V 0.70 0.70 o 691 0.74 Yes Yes
2001HG31 O C H 2008-11-01.29382 1.000E-05 03:27:18.920 1.500E-01 0.500 F -0.189 -0.100 +21° 15' 43.70" 1.000E-01 0.500 F 0.302 0.109 16.4 V 0.70 0.70 o 691 0.30 Yes Yes
2007EM88 O C H 2008-11-01.50585 1.000E-05 09:32:20.030 1.500E-01 0.500 F 0.014 -0.763 +15° 32' 03.30" 1.000E-01 0.500 F 0.255 -1.651 o 691 3.63 No No
2007EM88 O C H 2008-11-01.53108 1.000E-05 09:32:24.280 1.500E-01 0.500 F 0.014 -1.106 +15° 31' 49.00" 1.000E-01 0.500 F 0.255 -1.187 o 691 3.24 No No
2006SU19 O C H 2008-11-02.10107 1.000E-05 00:40:09.760 1.500E-01 0.500 F -0.163 0.214 +00° 24' 16.40" 1.000E-01 0.500 F 0.282 0.175 20.7 V 0.70 0.14 o 691 0.56 Yes Yes
2006SU19 O C H 2008-11-02.13860 1.000E-05 00:40:05.350 1.500E-01 0.500 F -0.163 -0.244 +00° 23' 48.30" 1.000E-01 0.500 F 0.282 -0.286 20.8 V 0.70 0.24 o 691 0.75 Yes Yes
2008VH O C 2008-11-02.14413 1.000E-05 02:27:33.420 1.500E-01 0.500 F -0.133 0.039 +11° 14' 17.00" 1.000E-01 0.500 F 0.273 -0.077 21.6 V 0.70 0.12 o 691 0.17 Yes Yes
2008VH O C 2008-11-02.16180 1.000E-05 02:27:31.970 1.500E-01 0.500 F -0.133 -0.547 +11° 14' 06.70" 1.000E-01 0.500 F 0.273 -0.515 21.5 V 0.70 0.02 o 691 1.53 Yes Yes
2008VH O C 2008-11-02.17947 1.000E-05 02:27:30.590 1.500E-01 0.500 F -0.133 -0.034 +11° 13' 57.40" 1.000E-01 0.500 F 0.273 0.058 21.4 V 0.70 -0.08 o 691 0.13 Yes Yes
2008SP7 O C 2008-11-02.25838 1.000E-05 03:31:38.580 1.500E-01 0.500 F -0.099 -0.196 +25° 18' 25.70" 1.000E-01 0.500 F 0.161 -0.053 o 691 0.41 Yes No
2008SP7 O C 2008-11-02.27612 1.000E-05 03:31:37.790 1.500E-01 0.500 F -0.099 -0.161 +25° 18' 52.80" 1.000E-01 0.500 F 0.161 0.037 o 691 0.33 Yes No
2008SP7 O C 2008-11-02.29386 1.000E-05 03:31:36.930 1.500E-01 0.500 F -0.099 -0.971 +25° 19' 17.90" 1.000E-01 0.500 F 0.161 -1.765 o 691 3.99 No No
Hephaistos O C 2008-11-02.32610 1.000E-05 03:50:08.990 1.500E-01 0.500 F -0.132 0.001 +27° 31' 19.20" 1.000E-01 0.500 F 0.104 -0.020 o 691 0.04 Yes No
Hephaistos O C 2008-11-02.34374 1.000E-05 03:50:07.800 1.500E-01 0.500 F -0.132 -0.214 +27° 31' 17.50" 1.000E-01 0.500 F 0.104 -0.011 o 691 0.43 Yes No
Hephaistos O C 2008-11-02.36173 1.000E-05 03:50:06.600 1.500E-01 0.500 F -0.132 -0.247 +27° 31' 15.60" 1.000E-01 0.500 F 0.104 -0.151 o 691 0.58 Yes No
2008TD2 O C H 2008-11-03.32406 1.000E-05 04:10:10.140 1.500E-01 0.500 F -0.094 -0.334 +30° 19' 24.90" 1.000E-01 0.500 F 0.157 0.275 21.2 V 0.70 0.50 o 691 0.89 Yes Yes
2008TD2 O C H 2008-11-03.33921 1.000E-05 04:10:07.840 1.500E-01 0.500 F -0.094 -0.808 +30° 19' 28.00" 1.000E-01 0.500 F 0.157 0.333 20.8 V 0.70 0.10 o 691 1.79 Yes Yes
2008TD2 O C H 2008-11-03.35519 1.000E-05 04:10:05.520 1.500E-01 0.500 F -0.094 0.108 +30° 19' 31.10" 1.000E-01 0.500 F 0.157 0.365 21.1 V 0.70 0.40 o 691 0.77 Yes Yes
2008VB1 O C 2008-11-03.36295 1.000E-05 04:20:34.360 1.500E-01 0.500 F -0.229 -0.563 +21° 14' 41.20" 1.000E-01 0.500 F 0.118 0.091 20.8 V 0.70 -0.11 o 691 1.15 Yes Yes
2001VC76 O C 2008-11-03.36541 1.000E-05 04:31:58.770 1.500E-01 0.500 F -0.203 -0.117 +21° 23' 19.70" 1.000E-01 0.500 F 0.165 0.141 20.6 V 0.70 0.08 o 691 0.37 Yes Yes
2006UP O C 2008-11-03.36803 1.000E-05 04:16:01.700 1.500E-01 0.500 F -0.172 -0.066 +20° 06' 45.80" 1.000E-01 0.500 F 0.208 -0.060 20.6 V 0.70 0.46 o 691 0.18 Yes Yes
2008VB1 O C 2008-11-03.38057 1.000E-05 04:20:32.570 1.500E-01 0.500 F -0.229 -0.903 +21° 14' 52.70" 1.000E-01 0.500 F 0.118 -0.330 20.7 V 0.70 -0.21 o 691 1.94 Yes Yes
2001VC76 O C 2008-11-03.38303 1.000E-05 04:31:56.110 1.500E-01 0.500 F -0.203 -0.639 +21° 23' 37.90" 1.000E-01 0.500 F 0.165 -0.344 21.0 V 0.70 0.48 o 691 1.47 Yes Yes
2006UP O C 2008-11-03.38565 1.000E-05 04:16:02.100 1.500E-01 0.500 F -0.172 -0.042 +20° 07' 06.60" 1.000E-01 0.500 F 0.208 -0.104 20.8 V 0.70 0.66 o 691 0.22 Yes Yes
2008VB1 O C 2008-11-03.39819 1.000E-05 04:20:30.850 1.500E-01 0.500 F -0.229 -0.250 +21° 15' 04.30" 1.000E-01 0.500 F 0.118 -0.589 20.7 V 0.70 -0.21 o 691 1.29 Yes Yes
2001VC76 O C 2008-11-03.40065 1.000E-05 04:31:53.460 1.500E-01 0.500 F -0.203 -1.015 +21° 23' 56.80" 1.000E-01 0.500 F 0.165 -0.066 20.4 V 0.70 -0.12 o 691 2.06 Yes Yes
2006UP O C 2008-11-03.40327 1.000E-05 04:16:02.490 1.500E-01 0.500 F -0.172 -0.207 +20° 07' 27.20" 1.000E-01 0.500 F 0.208 -0.124 20.6 V 0.70 0.46 o 691 0.48 Yes Yes
2004YJ32 O C 2008-11-03.47234 1.000E-05 09:05:09.800 1.500E-01 0.500 F -0.018 0.250 +15° 19' 43.80" 1.000E-01 0.500 F 0.147 -0.818 20.5 V 0.70 -0.68 o 691 1.71 Yes Yes
2004YJ32 O C 2008-11-03.48493 1.000E-05 09:05:10.350 1.500E-01 0.500 F -0.018 0.370 +15° 19' 43.10" 1.000E-01 0.500 F 0.147 -0.301 20.8 V 0.70 -0.38 o 691 0.95 Yes Yes
2004YJ32 O C 2008-11-03.49752 1.000E-05 09:05:10.860 1.500E-01 0.500 F -0.018 -0.075 +15° 19' 42.60" 1.000E-01 0.500 F 0.147 0.420 21.2 V 0.70 0.02 o 691 0.85 Yes Yes
2007DM41 O C 2008-11-04.08744 1.000E-05 01:33:36.990 1.500E-01 0.500 F -0.237 -0.341 +18° 04' 21.70" 1.000E-01 0.500 F 0.258 -0.122 o 691 0.73 Yes No
2007DM41 O C 2008-11-04.10503 1.000E-05 01:33:34.700 1.500E-01 0.500 F -0.237 -0.333 +18° 03' 57.70" 1.000E-01 0.500 F 0.258 -0.213 o 691 0.79 Yes No
2007DM41 O C 2008-11-04.12262 1.000E-05 01:33:32.390 1.500E-01 0.500 F -0.237 -0.333 +18° 03' 33.90" 1.000E-01 0.500 F 0.258 -0.060 o 691 0.68 Yes No
2007DM41 O C 2008-11-06.08178 1.000E-05 01:29:59.710 1.500E-01 0.500 F -0.159 -0.267 +17° 20' 59.60" 1.000E-01 0.500 F 0.272 -0.024 20.2 V 0.70 0.08 o 691 0.54 Yes Yes
2008VZ3 O C 2008-11-06.09430 1.000E-05 01:39:37.680 1.500E-01 0.500 F -0.358 -0.394 +15° 01' 46.80" 1.000E-01 0.500 F 0.252 0.101 20.3 V 0.70 -0.22 o 691 0.85 Yes Yes
2007DM41 O C 2008-11-06.09936 1.000E-05 01:29:57.850 1.500E-01 0.500 F -0.159 -0.588 +17° 20' 39.10" 1.000E-01 0.500 F 0.272 -0.314 19.8 V 0.70 -0.33 o 691 1.34 Yes Yes
2008VZ3 O C 2008-11-06.11187 1.000E-05 01:39:36.520 1.500E-01 0.500 F -0.358 0.527 +15° 01' 17.30" 1.000E-01 0.500 F 0.252 0.106 20.9 V 0.70 0.38 o 691 1.12 Yes Yes
2007DM41 O C 2008-11-06.11694 1.000E-05 01:29:56.000 1.500E-01 0.500 F -0.159 -0.508 +17° 20' 19.10" 1.000E-01 0.500 F 0.272 -0.062 20.1 V 0.70 -0.03 o 691 1.03 Yes Yes
2008VZ3 O C 2008-11-06.12947 1.000E-05 01:39:35.210 1.500E-01 0.500 F -0.358 0.018 +15° 00' 47.60" 1.000E-01 0.500 F 0.252 0.173 20.7 V 0.70 0.18 o 691 0.35 Yes Yes
Hephaistos O C 2008-11-06.32069 1.000E-05 03:45:42.710 1.500E-01 0.500 F -0.059 -0.043 +27° 24' 00.20" 1.000E-01 0.500 F 0.165 -0.038 19.2 V 0.70 0.09 o 691 0.12 Yes Yes
Hephaistos O C 2008-11-06.33843 1.000E-05 03:45:41.480 1.500E-01 0.500 F -0.059 -0.125 +27° 23' 58.00" 1.000E-01 0.500 F 0.165 -0.079 19.3 V 0.70 0.19 o 691 0.30 Yes Yes
Hephaistos O C 2008-11-06.35622 1.000E-05 03:45:40.260 1.500E-01 0.500 F -0.059 -0.026 +27° 23' 55.80" 1.000E-01 0.500 F 0.165 -0.098 19.2 V 0.70 0.09 o 691 0.20 Yes Yes
2001VG5 O C 2008-11-06.43159 1.000E-05 04:45:25.070 1.500E-01 0.500 F -0.112 -0.091 +27° 57' 02.20" 1.000E-01 0.500 F 0.216 -0.173 18.7 V 0.70 -0.14 o 691 0.39 Yes Yes
2001VG5 O C 2008-11-06.44922 1.000E-05 04:45:24.300 1.500E-01 0.500 F -0.112 -0.085 +27° 56' 54.10" 1.000E-01 0.500 F 0.216 -0.024 18.7 V 0.70 -0.14 o 691 0.18 Yes Yes
2001VG5 O C 2008-11-06.46686 1.000E-05 04:45:23.530 1.500E-01 0.500 F -0.112 -0.103 +27° 56' 45.80" 1.000E-01 0.500 F 0.216 -0.020 18.8 V 0.70 -0.04 o 691 0.21 Yes Yes
1998WT O C H 2008-11-06.48810 1.000E-05 09:24:55.360 1.500E-01 0.500 F 0.093 -0.358 +16° 36' 07.20" 1.000E-01 0.500 F 0.218 -0.432 21.0 V 0.70 -0.27 o 691 1.12 Yes Yes
1998WT O C H 2008-11-06.51329 1.000E-05 09:24:57.250 1.500E-01 0.500 F 0.093 -1.193 +16° 35' 57.50" 1.000E-01 0.500 F 0.218 -0.398 20.8 V 0.70 -0.47 o 691 2.52 Yes Yes
2008VZ3 O C 2008-11-07.08617 1.000E-05 01:38:45.570 1.500E-01 0.500 F -0.384 0.128 +14° 30' 35.10" 1.000E-01 0.500 F 0.253 -0.335 19.9 V 0.70 -0.51 o 691 0.74 Yes Yes
2008VZ3 O C 2008-11-07.10379 1.000E-05 01:38:44.290 1.500E-01 0.500 F -0.384 0.292 +14° 30' 01.90" 1.000E-01 0.500 F 0.253 0.080 20.3 V 0.70 -0.11 o 691 0.62 Yes Yes
2008VZ3 O C 2008-11-07.12141 1.000E-05 01:38:42.930 1.500E-01 0.500 F -0.384 0.074 +14° 29' 27.90" 1.000E-01 0.500 F 0.253 -0.081 20.2 V 0.70 -0.21 o 691 0.23 Yes Yes
2002VU94 O C 2008-11-07.15575 1.000E-05 02:32:50.300 1.500E-01 0.500 F -0.106 -0.192 +16° 11' 23.70" 1.000E-01 0.500 F 0.306 -0.141 18.9 V 0.70 0.00 o 691 0.48 Yes Yes
2002VU94 O C 2008-11-07.17335 1.000E-05 02:32:49.000 1.500E-01 0.500 F -0.106 0.005 +16° 11' 15.20" 1.000E-01 0.500 F 0.306 0.124 18.9 V 0.70 0.00 o 691 0.25 Yes Yes
2002VU94 O C 2008-11-07.19096 1.000E-05 02:32:47.670 1.500E-01 0.500 F -0.106 -0.189 +16° 11' 06.40" 1.000E-01 0.500 F 0.306 0.103 19.0 V 0.70 0.09 o 691 0.43 Yes Yes
2008SP7 O C 2008-11-07.27141 1.000E-05 03:28:19.190 1.500E-01 0.612 F -0.158 -0.121 +27° 15' 41.70" 1.000E-01 0.612 F 0.208 -0.122 18.0 V 0.70 -0.21 o 691 0.28 Yes Yes
2008SP7 O C 2008-11-07.27387 1.000E-05 03:28:19.060 1.500E-01 0.612 F -0.158 -0.190 +27° 15' 45.00" 1.000E-01 0.612 F 0.208 -0.075 18.0 V 0.70 -0.21 o 691 0.34 Yes Yes
2008SP7 O C 2008-11-07.28907 1.000E-05 03:28:18.290 1.500E-01 0.612 F -0.158 -0.140 +27° 16' 05.00" 1.000E-01 0.612 F 0.208 -0.125 17.9 V 0.70 -0.31 o 691 0.31 Yes Yes
2008SP7 O C 2008-11-07.29153 1.000E-05 03:28:18.170 1.500E-01 0.612 F -0.158 -0.066 +27° 16' 08.30" 1.000E-01 0.612 F 0.208 -0.061 17.9 V 0.70 -0.31 o 691 0.15 Yes Yes
2008SP7 O C 2008-11-07.30673 1.000E-05 03:28:17.390 1.500E-01 0.612 F -0.158 -0.104 +27° 16' 28.10" 1.000E-01 0.612 F 0.208 -0.209 18.1 V 0.70 -0.11 o 691 0.38 Yes Yes
2008SP7 O C 2008-11-07.30919 1.000E-05 03:28:17.270 1.500E-01 0.612 F -0.158 -0.025 +27° 16' 31.40" 1.000E-01 0.612 F 0.208 -0.129 18.0 V 0.70 -0.21 o 691 0.22 Yes Yes
2008VB1 O C 2008-11-07.37369 1.000E-05 04:13:37.340 1.500E-01 0.500 F -0.205 -0.170 +22° 00' 51.70" 1.000E-01 0.500 F 0.161 -0.181 21.0 V 0.70 0.33 o 691 0.50 Yes Yes
2006UP O C 2008-11-07.37616 1.000E-05 04:18:29.730 1.500E-01 0.500 F -0.229 -0.217 +21° 22' 27.40" 1.000E-01 0.500 F 0.118 -0.181 20.6 V 0.70 0.46 o 691 0.57 Yes Yes
2001VC76 O C H 2008-11-07.37862 1.000E-05 04:22:08.770 1.500E-01 0.500 F -0.201 -0.255 +22° 31' 25.20" 1.000E-01 0.500 F 0.138 -0.543 o 691 1.21 Yes No
2008WN2 O C 2008-11-07.38618 1.000E-05 04:24:45.530 1.500E-01 0.500 F -0.187 -0.054 +20° 45' 06.10" 1.000E-01 0.500 F 0.182 -0.304 20.2 V 0.70 0.09 o 691 0.62 Yes Yes
2008VB1 O C 2008-11-07.39135 1.000E-05 04:13:35.190 1.500E-01 0.500 F -0.205 -0.379 +22° 01' 03.90" 1.000E-01 0.500 F 0.161 -0.296 20.5 V 0.70 -0.17 o 691 0.97 Yes Yes
2006UP O C 2008-11-07.39382 1.000E-05 04:18:29.790 1.500E-01 0.500 F -0.229 -1.119 +21° 22' 47.00" 1.000E-01 0.500 F 0.118 0.747 21.4 V 0.70 1.26 o 691 2.70 Yes Yes
2001VC76 O C H 2008-11-07.39628 1.000E-05 04:22:06.060 1.500E-01 0.500 F -0.201 0.309 +22° 31' 42.10" 1.000E-01 0.500 F 0.138 -0.748 o 691 1.64 Yes No
2008WN2 O C 2008-11-07.40384 1.000E-05 04:24:44.800 1.500E-01 0.500 F -0.187 -0.650 +20° 44' 55.10" 1.000E-01 0.500 F 0.182 0.132 19.9 V 0.70 -0.21 o 691 1.33 Yes Yes
2008VB1 O C 2008-11-07.40901 1.000E-05 04:13:33.020 1.500E-01 0.500 F -0.205 -0.886 +22° 01' 16.50" 1.000E-01 0.500 F 0.161 0.057 20.5 V 0.70 -0.17 o 691 1.79 Yes Yes
2006UP O C 2008-11-07.41148 1.000E-05 04:18:29.920 1.500E-01 0.500 F -0.229 -1.159 +21° 23' 04.60" 1.000E-01 0.500 F 0.118 -0.100 20.6 V 0.70 0.46 o 691 2.34 Yes Yes
2001VC76 O C H 2008-11-07.41395 1.000E-05 04:22:03.310 1.500E-01 0.500 F -0.201 0.312 +22° 31' 58.60" 1.000E-01 0.500 F 0.138 -1.297 o 691 2.70 Yes No
2008WN2 O C 2008-11-07.42150 1.000E-05 04:24:44.290 1.500E-01 0.500 F -0.187 1.796 +20° 44' 43.80" 1.000E-01 0.500 F 0.182 0.361 19.8 V 0.70 -0.31 o 691 3.64 No Yes
2008TK157 O C 2008-11-08.09269 1.000E-05 01:30:02.870 1.500E-01 0.500 F -0.075 -0.135 +09° 02' 11.10" 1.000E-01 0.500 F 0.215 -0.001 19.3 V 0.70 0.14 o 691 0.27 Yes Yes
2008TK157 O C 2008-11-08.11031 1.000E-05 01:30:03.460 1.500E-01 0.500 F -0.075 0.098 +09° 01' 54.20" 1.000E-01 0.500 F 0.215 -0.147 19.2 V 0.70 0.04 o 691 0.36 Yes Yes
2008TK157 O C 2008-11-08.12793 1.000E-05 01:30:04.000 1.500E-01 0.500 F -0.075 -0.174 +09° 01' 37.60" 1.000E-01 0.500 F 0.215 0.046 19.3 V 0.70 0.14 o 691 0.37 Yes Yes
2008UO90 O C 2008-11-08.19465 1.000E-05 02:40:38.900 1.500E-01 0.500 F -0.208 -0.154 +14° 45' 25.80" 1.000E-01 0.500 F 0.161 0.018 21.4 V 0.70 0.18 o 691 0.31 Yes Yes
2005UP156 O C 2008-11-08.20710 1.000E-05 02:55:41.460 1.500E-01 0.500 F -0.289 -0.137 +12° 28' 23.90" 1.000E-01 0.500 F 0.230 0.009 19.5 V 0.70 -0.03 o 691 0.28 Yes Yes
2008UO90 O C 2008-11-08.21227 1.000E-05 02:40:37.750 1.500E-01 0.500 F -0.208 -0.138 +14° 45' 13.90" 1.000E-01 0.500 F 0.161 0.004 21.2 V 0.70 -0.02 o 691 0.28 Yes Yes
2005UP156 O C 2008-11-08.22473 1.000E-05 02:55:40.000 1.500E-01 0.500 F -0.289 -0.235 +12° 28' 16.50" 1.000E-01 0.500 F 0.230 0.092 19.5 V 0.70 -0.03 o 691 0.51 Yes Yes
2008UO90 O C 2008-11-08.22990 1.000E-05 02:40:36.570 1.500E-01 0.500 F -0.208 -0.493 +14° 45' 02.10" 1.000E-01 0.500 F 0.161 0.123 20.8 V 0.70 -0.42 o 691 1.03 Yes Yes
2005UP156 O C 2008-11-08.24234 1.000E-05 02:55:38.530 1.500E-01 0.500 F -0.289 -0.473 +12° 28' 08.90" 1.000E-01 0.500 F 0.230 -0.019 19.7 V 0.70 0.17 o 691 0.95 Yes Yes
1986DA O C 2008-11-08.25483 1.000E-05 03:27:52.530 1.500E-01 0.500 F -0.185 -0.536 +17° 25' 30.50" 1.000E-01 0.500 F 0.292 0.181 20.7 V 0.70 0.11 o 691 1.13 Yes Yes
1986DA O C 2008-11-08.27538 1.000E-05 03:27:51.240 1.500E-01 0.500 F -0.185 -0.965 +17° 25' 27.10" 1.000E-01 0.500 F 0.292 0.411 20.4 V 0.70 -0.19 o 691 2.10 Yes Yes
1986DA O C 2008-11-08.29300 1.000E-05 03:27:50.180 1.500E-01 0.500 F -0.185 -0.658 +17° 25' 23.40" 1.000E-01 0.500 F 0.292 -0.164 20.5 V 0.70 -0.09 o 691 1.36 Yes Yes
2008UT99 O C H 2008-11-08.37557 1.000E-05 04:19:09.750 1.500E-01 0.500 F -0.098 -2.000 +29° 41' 09.40" 1.000E-01 0.500 F 0.083 0.362 20.8 V 0.70 -0.28 o 691 3.62 No Yes
2008UT99 O C H 2008-11-08.39324 1.000E-05 04:19:10.600 1.500E-01 0.500 F -0.098 -0.212 +29° 40' 49.50" 1.000E-01 0.500 F 0.083 -0.117 21.2 V 0.70 0.12 o 691 0.55 Yes Yes
2004YJ32 O C 2008-11-08.48497 1.000E-05 09:08:33.630 1.500E-01 0.500 F -0.002 0.552 +15° 12' 45.50" 1.000E-01 0.500 F 0.148 -0.089 20.7 V 0.70 -0.46 o 691 1.12 Yes Yes
2004YJ32 O C 2008-11-08.49757 1.000E-05 09:08:34.040 1.500E-01 0.500 F -0.002 -0.013 +15° 12' 44.60" 1.000E-01 0.500 F 0.148 -0.175 20.6 V 0.70 -0.56 o 691 0.35 Yes Yes
2004YJ32 O C 2008-11-08.51018 1.000E-05 09:08:34.440 1.500E-01 0.500 F -0.002 -0.717 +15° 12' 44.80" 1.000E-01 0.500 F 0.148 0.845 20.6 V 0.70 -0.56 o 691 2.22 Yes Yes
2008UE202 O C H 2008-11-09.09459 1.000E-05 01:41:45.270 1.500E-01 0.500 F -0.251 3.399 +17° 02' 27.00" 1.000E-01 0.500 F 0.263 -0.527 20.9 V 0.70 -0.59 o 691 6.71 No Yes
2007DM41 O C 2008-11-09.09975 1.000E-05 01:25:53.940 1.500E-01 0.500 F -0.264 -0.637 +16° 27' 29.60" 1.000E-01 0.500 F 0.220 -0.629 20.5 V 0.70 -0.02 o 691 1.80 Yes Yes
Vinciguerra O C 2008-11-09.10220 1.000E-05 01:37:21.480 1.500E-01 0.500 F -0.277 -0.074 +16° 09' 38.70" 1.000E-01 0.500 F 0.256 1.456 19.8 V 0.70 -0.20 o 691 2.92 Yes Yes
2008UE202 O C H 2008-11-09.11219 1.000E-05 01:41:45.840 1.500E-01 0.500 F -0.251 0.143 +17° 02' 33.00" 1.000E-01 0.500 F 0.263 -0.218 20.8 V 0.70 -0.69 o 691 0.54 Yes Yes
2007DM41 O C 2008-11-09.11736 1.000E-05 01:25:52.640 1.500E-01 0.500 F -0.264 -0.125 +16° 27' 14.60" 1.000E-01 0.500 F 0.220 0.276 20.3 V 0.70 -0.23 o 691 0.61 Yes Yes
Vinciguerra O C 2008-11-09.11981 1.000E-05 01:37:19.970 1.500E-01 0.500 F -0.277 -0.751 +16° 09' 23.60" 1.000E-01 0.500 F 0.256 -0.207 20.0 V 0.70 0.00 o 691 1.57 Yes Yes
2008UE202 O C H 2008-11-09.12981 1.000E-05 01:41:46.690 1.500E-01 0.500 F -0.251 1.073 +17° 02' 38.80" 1.000E-01 0.500 F 0.263 -0.064 21.2 V 0.70 -0.29 o 691 2.21 Yes Yes
2007DM41 O C 2008-11-09.13498 1.000E-05 01:25:51.300 1.500E-01 0.500 F -0.264 0.014 +16° 26' 59.00" 1.000E-01 0.500 F 0.220 0.640 20.6 V 0.70 0.07 o 691 1.28 Yes Yes
Vinciguerra O C 2008-11-09.13743 1.000E-05 01:37:18.510 1.500E-01 0.500 F -0.277 -0.624 +16° 09' 10.20" 1.000E-01 0.500 F 0.256 -0.140 20.3 V 0.70 0.30 o 691 1.29 Yes Yes
1999YB O C 2008-11-09.15135 1.000E-05 02:34:15.280 1.500E-01 0.500 F -0.301 -0.196 +21° 07' 06.80" 1.000E-01 0.500 F 0.282 0.105 18.2 V 0.70 0.27 o 691 0.45 Yes Yes
1999YB O C 2008-11-09.16899 1.000E-05 02:34:12.870 1.500E-01 0.500 F -0.301 -0.338 +21° 07' 10.00" 1.000E-01 0.500 F 0.282 0.050 18.2 V 0.70 0.27 o 691 0.68 Yes Yes
1999YB O C 2008-11-09.18663 1.000E-05 02:34:10.470 1.500E-01 0.500 F -0.301 -0.205 +21° 07' 13.10" 1.000E-01 0.500 F 0.282 -0.041 18.2 V 0.70 0.27 o 691 0.42 Yes Yes
2006BG O C 2008-11-09.20185 1.000E-05 02:47:51.340 1.500E-01 0.500 F -0.162 -0.291 +24° 29' 54.20" 1.000E-01 0.500 F 0.246 0.012 20.2 V 0.70 -0.21 o 691 0.59 Yes Yes
2006BG O C 2008-11-09.21948 1.000E-05 02:47:48.810 1.500E-01 0.500 F -0.162 -0.560 +24° 29' 39.70" 1.000E-01 0.500 F 0.246 -0.171 20.3 V 0.70 -0.11 o 691 1.18 Yes Yes
2006BG O C 2008-11-09.23712 1.000E-05 02:47:46.310 1.500E-01 0.500 F -0.162 -0.372 +24° 29' 25.20" 1.000E-01 0.500 F 0.246 -0.309 20.3 V 0.70 -0.11 o 691 0.97 Yes Yes
1986DA O C 2008-11-09.26220 1.000E-05 03:26:51.810 1.500E-01 0.500 F -0.185 -0.321 +17° 22' 29.20" 1.000E-01 0.500 F 0.292 -0.008 20.5 V 0.70 -0.05 o 691 0.64 Yes Yes
1986DA O C 2008-11-09.27981 1.000E-05 03:26:50.690 1.500E-01 0.500 F -0.185 -0.760 +17° 22' 25.90" 1.000E-01 0.500 F 0.292 -0.152 20.7 V 0.70 0.15 o 691 1.55 Yes Yes
1986DA O C 2008-11-09.29741 1.000E-05 03:26:49.620 1.500E-01 0.500 F -0.185 -0.480 +17° 22' 22.80" 1.000E-01 0.500 F 0.292 -0.085 20.7 V 0.70 0.15 o 691 0.98 Yes Yes
2008US2 O C 2008-11-09.37833 1.000E-05 04:27:38.840 1.500E-01 0.500 F 0.050 -0.643 +31° 42' 26.40" 1.000E-01 0.500 F 0.205 0.035 20.8 V 0.70 0.26 o 691 1.34 Yes Yes
2008US2 O C 2008-11-09.39606 1.000E-05 04:27:40.720 1.500E-01 0.500 F 0.050 -0.222 +31° 43' 12.50" 1.000E-01 0.500 F 0.205 -0.150 20.8 V 0.70 0.26 o 691 0.56 Yes Yes
2008US2 O C 2008-11-09.41379 1.000E-05 04:27:42.600 1.500E-01 0.500 F 0.050 0.038 +31° 43' 58.40" 1.000E-01 0.500 F 0.205 -0.130 20.6 V 0.70 0.06 o 691 0.28 Yes Yes
2002AW11 O C H 2008-11-09.50128 1.000E-05 09:38:49.980 1.500E-01 0.500 F -0.037 -0.526 +13° 12' 09.20" 1.000E-01 0.500 F 0.248 -0.367 21.0 V 0.70 -0.42 o 691 1.29 Yes Yes
2002AW11 O C H 2008-11-09.51388 1.000E-05 09:38:52.750 1.500E-01 0.500 F -0.037 -0.635 +13° 12' 08.70" 1.000E-01 0.500 F 0.248 -0.024 21.4 V 0.70 -0.02 o 691 1.28 Yes Yes
2008UP100 O C H 2008-11-17.08229 1.000E-05 02:07:46.750 1.500E-01 0.500 F -0.270 -1.882 +12° 49' 17.70" 1.000E-01 0.500 F 0.192 0.412 20.7 V 0.70 -0.25 o 691 3.48 No Yes
2008UP100 O C H 2008-11-17.10617 1.000E-05 02:07:52.140 1.500E-01 0.500 F -0.270 0.893 +12° 48' 45.90" 1.000E-01 0.500 F 0.192 -0.479 21.0 V 0.70 0.04 o 691 2.28 Yes Yes
2008UP100 O C H 2008-11-17.13005 1.000E-05 02:07:57.140 1.500E-01 0.500 F -0.270 -1.048 +12° 48' 15.00" 1.000E-01 0.500 F 0.192 -0.371 21.0 V 0.70 0.04 o 691 2.52 Yes Yes
2002VU94 O C 2008-11-17.16244 1.000E-05 02:21:26.940 1.500E-01 0.500 F -0.186 -0.050 +14° 50' 27.00" 1.000E-01 0.500 F 0.248 -0.128 19.2 V 0.70 -0.11 o 691 0.28 Yes Yes
2008UK90 O C 2008-11-17.16762 1.000E-05 02:23:23.450 1.500E-01 0.500 F -0.129 -0.136 +11° 22' 48.20" 1.000E-01 0.500 F 0.215 -0.039 20.5 V 0.70 0.26 o 691 0.30 Yes Yes
2002VU94 O C 2008-11-17.19417 1.000E-05 02:21:24.910 1.500E-01 0.500 F -0.186 -0.039 +14° 50' 12.60" 1.000E-01 0.500 F 0.248 -0.016 19.3 V 0.70 -0.01 o 691 0.08 Yes Yes
2008UK90 O C 2008-11-17.19935 1.000E-05 02:23:18.400 1.500E-01 0.500 F -0.204 0.363 +11° 23' 27.30" 1.000E-01 0.500 F 0.257 0.491 20.2 V 0.70 -0.04 o 691 1.26 Yes Yes
2002VU94 O C 2008-11-17.22336 1.000E-05 02:21:23.030 1.500E-01 0.500 F -0.186 -0.175 +14° 49' 59.20" 1.000E-01 0.500 F 0.248 -0.036 19.4 V 0.70 0.09 o 691 0.36 Yes Yes
2008UK90 O C 2008-11-17.22854 1.000E-05 02:23:13.680 1.500E-01 0.500 F -0.204 -0.233 +11° 24' 02.30" 1.000E-01 0.500 F 0.257 0.101 20.2 V 0.70 -0.05 o 691 0.53 Yes Yes
2001VC76 O C H 2008-11-18.21359 1.000E-05 03:54:46.480 1.500E-01 0.500 F -0.106 0.192 +25° 01' 32.60" 1.000E-01 0.500 F 0.233 -0.601 20.4 V 0.70 0.11 o 691 1.29 Yes Yes
2001VC76 O C H 2008-11-18.23122 1.000E-05 03:54:43.770 1.500E-01 0.500 F -0.106 -0.088 +25° 01' 45.40" 1.000E-01 0.500 F 0.233 -0.093 20.5 V 0.70 0.21 o 691 0.26 Yes Yes
2001VC76 O C H 2008-11-18.24886 1.000E-05 03:54:41.070 1.500E-01 0.500 F -0.106 -0.147 +25° 01' 57.50" 1.000E-01 0.500 F 0.233 -0.230 20.7 V 0.70 0.41 o 691 0.55 Yes Yes
Miwablock O C 2008-11-18.49325 1.000E-05 11:10:11.850 1.500E-01 0.500 F 0.058 -0.192 +10° 40' 14.90" 1.000E-01 0.500 F 0.118 -0.249 19.9 V 0.70 -0.06 o 691 0.63 Yes Yes
Miwablock O C 2008-11-18.50585 1.000E-05 11:10:12.650 1.500E-01 0.500 F 0.058 -0.221 +10° 40' 12.10" 1.000E-01 0.500 F 0.118 0.047 20.0 V 0.70 0.04 o 691 0.45 Yes Yes
Miwablock O C 2008-11-18.51843 1.000E-05 11:10:13.460 1.500E-01 0.500 F 0.058 -0.070 +10° 40' 09.00" 1.000E-01 0.500 F 0.118 0.039 20.1 V 0.70 0.14 o 691 0.16 Yes Yes
2008UK90 O C 2008-11-19.07677 1.000E-05 02:18:25.850 1.500E-01 0.500 F -0.149 0.100 +12° 01' 29.10" 1.000E-01 0.500 F 0.269 0.206 20.4 V 0.70 0.11 o 691 0.47 Yes Yes
2008UK90 O C 2008-11-19.09247 1.000E-05 02:18:23.340 1.500E-01 0.500 F -0.149 -0.422 +12° 01' 48.20" 1.000E-01 0.500 F 0.269 -0.041 20.2 V 0.70 -0.09 o 691 0.88 Yes Yes
2008UK90 O C 2008-11-19.10818 1.000E-05 02:18:20.900 1.500E-01 0.500 F -0.149 0.177 +12° 02' 07.50" 1.000E-01 0.500 F 0.269 -0.091 20.4 V 0.70 0.11 o 691 0.39 Yes Yes
2001VG5 O C 2008-11-19.27286 1.000E-05 04:32:27.030 1.500E-01 0.500 F -0.163 -0.070 +25° 42' 48.50" 1.000E-01 0.500 F 0.263 0.065 18.0 V 0.70 0.00 o 691 0.19 Yes Yes
2001VG5 O C 2008-11-19.29050 1.000E-05 04:32:25.510 1.500E-01 0.500 F -0.163 -0.173 +25° 42' 34.20" 1.000E-01 0.500 F 0.263 0.035 18.0 V 0.70 0.00 o 691 0.35 Yes Yes
2001VG5 O C 2008-11-19.30814 1.000E-05 04:32:24.000 1.500E-01 0.500 F -0.163 -0.092 +25° 42' 19.80" 1.000E-01 0.500 F 0.263 -0.034 18.0 V 0.70 0.01 o 691 0.20 Yes Yes
2000WN63 O C 2008-11-19.31566 1.000E-05 04:54:40.100 1.500E-01 0.500 F -0.272 -0.305 +27° 23' 53.90" 1.000E-01 0.500 F 0.158 0.435 20.3 V 0.70 -0.23 o 691 1.07 Yes Yes
2008SR O C 2008-11-19.31812 1.000E-05 05:05:50.650 1.500E-01 0.500 F -0.228 -0.208 +28° 30' 24.70" 1.000E-01 0.500 F 0.123 -0.178 20.0 V 0.70 -0.16 o 691 0.59 Yes Yes
2000WN63 O C 2008-11-19.33330 1.000E-05 04:54:38.050 1.500E-01 0.500 F -0.272 -0.276 +27° 24' 02.90" 1.000E-01 0.500 F 0.158 -0.125 20.5 V 0.70 -0.03 o 691 0.61 Yes Yes
2008SR O C 2008-11-19.33577 1.000E-05 05:05:50.850 1.500E-01 0.500 F -0.228 -0.062 +28° 30' 05.10" 1.000E-01 0.500 F 0.123 0.033 20.1 V 0.70 -0.06 o 691 0.15 Yes Yes
2000WN63 O C 2008-11-19.35096 1.000E-05 04:54:36.000 1.500E-01 0.500 F -0.272 -0.185 +27° 24' 12.60" 1.000E-01 0.500 F 0.158 0.054 20.2 V 0.70 -0.33 o 691 0.39 Yes Yes
2008SR O C 2008-11-19.35343 1.000E-05 05:05:51.030 1.500E-01 0.500 F -0.228 -0.114 +28° 29' 44.70" 1.000E-01 0.500 F 0.123 -0.375 19.8 V 0.70 -0.36 o 691 0.84 Yes Yes
2008WN2 O C 2008-11-20.21741 1.000E-05 04:13:15.110 1.500E-01 0.500 F -0.127 -0.034 +17° 46' 18.60" 1.000E-01 0.500 F 0.228 0.061 19.2 V 0.70 0.12 o 691 0.14 Yes Yes
2008WN2 O C 2008-11-20.23505 1.000E-05 04:13:13.580 1.500E-01 0.500 F -0.127 -0.070 +17° 46' 00.40" 1.000E-01 0.500 F 0.228 -0.150 19.2 V 0.70 0.12 o 691 0.33 Yes Yes
2008WN2 O C 2008-11-20.25268 1.000E-05 04:13:12.050 1.500E-01 0.500 F -0.127 0.056 +17° 45' 42.40" 1.000E-01 0.500 F 0.228 -0.079 19.1 V 0.70 0.02 o 691 0.20 Yes Yes
2008UO90 O C H 2008-11-21.12113 1.000E-05 02:29:57.680 1.500E-01 0.500 F -0.110 -1.801 +12° 40' 42.00" 1.000E-01 0.500 F 0.226 1.684 21.0 V 0.70 -1.03 o 691 4.87 No Yes
2008UO90 O C H 2008-11-21.13450 1.000E-05 02:29:57.280 1.500E-01 0.500 F -0.110 0.042 +12° 40' 34.10" 1.000E-01 0.500 F 0.226 -0.133 21.7 V 0.70 -0.33 o 691 0.28 Yes Yes
2008UO90 O C H 2008-11-21.14788 1.000E-05 02:29:56.780 1.500E-01 0.500 F -0.110 0.463 +12° 40' 28.90" 1.000E-01 0.500 F 0.226 0.762 21.9 V 0.70 -0.13 o 691 1.80 Yes Yes
2005UP156 O C 2008-11-21.16879 1.000E-05 02:40:04.520 1.500E-01 0.500 F -0.052 -0.297 +11° 06' 59.00" 1.000E-01 0.500 F 0.175 -0.082 20.1 V 0.70 -0.01 o 691 0.62 Yes Yes
2005UP156 O C 2008-11-21.18200 1.000E-05 02:40:03.640 1.500E-01 0.500 F -0.052 -0.664 +11° 06' 55.00" 1.000E-01 0.500 F 0.175 0.032 20.1 V 0.70 -0.01 o 691 1.33 Yes Yes
2005UP156 O C 2008-11-21.19521 1.000E-05 02:40:02.830 1.500E-01 0.500 F -0.052 0.012 +11° 06' 50.90" 1.000E-01 0.500 F 0.175 0.052 19.9 V 0.70 -0.21 o 691 0.11 Yes Yes
2008WF14 O C 2008-11-21.20556 1.000E-05 04:08:25.670 1.500E-01 0.500 F -0.195 -0.079 +20° 29' 21.50" 1.000E-01 0.500 F 0.131 -0.216 20.8 V 0.70 0.20 o 691 0.48 Yes Yes
2008WF14 O C 2008-11-21.22324 1.000E-05 04:08:28.570 1.500E-01 0.500 F -0.195 -0.082 +20° 28' 13.20" 1.000E-01 0.500 F 0.131 -0.012 20.5 V 0.70 -0.10 o 691 0.17 Yes Yes
2008WF14 O C 2008-11-21.24092 1.000E-05 04:08:31.410 1.500E-01 0.500 F -0.195 -0.404 +20° 27' 04.70" 1.000E-01 0.500 F 0.131 0.218 20.5 V 0.70 -0.10 o 691 0.97 Yes Yes
2002PZ39 O C H 2008-11-21.25856 1.000E-05 04:20:26.250 1.500E-01 0.500 F -0.272 -0.454 +24° 31' 26.30" 1.000E-01 0.500 F 0.292 -0.303 21.2 V 0.70 -0.24 o 691 1.09 Yes Yes
2006UP O C H 2008-11-21.25856 1.000E-05 04:20:24.730 1.500E-01 0.500 F -0.272 0.205 +24° 42' 50.50" 1.000E-01 0.500 F 0.292 -0.081 20.5 V 0.70 0.35 o 691 0.44 Yes Yes
1989JA O C 2008-11-21.26350 1.000E-05 04:41:07.130 1.500E-01 0.500 F -0.171 -0.156 +24° 30' 48.10" 1.000E-01 0.500 F 0.156 0.003 19.8 V 0.70 0.19 o 691 0.31 Yes Yes
2006UP O C H 2008-11-21.27624 1.000E-05 04:20:24.250 1.500E-01 0.500 F -0.272 -0.237 +24° 43' 02.60" 1.000E-01 0.500 F 0.292 -0.228 20.7 V 0.70 0.55 o 691 0.66 Yes Yes
1989JA O C 2008-11-21.28117 1.000E-05 04:41:04.930 1.500E-01 0.500 F -0.171 -0.238 +24° 30' 53.50" 1.000E-01 0.500 F 0.156 0.004 19.7 V 0.70 0.09 o 691 0.48 Yes Yes
1989JA O C 2008-11-21.29885 1.000E-05 04:41:02.730 1.500E-01 0.500 F -0.171 -0.270 +24° 30' 58.80" 1.000E-01 0.500 F 0.156 -0.059 19.7 V 0.70 0.09 o 691 0.55 Yes Yes
1998JH2 O C 2008-11-21.43374 1.000E-05 06:27:33.370 1.500E-01 0.500 F -0.070 -0.347 +28° 54' 50.20" 1.000E-01 0.500 F 0.179 -0.040 19.1 V 0.70 0.62 o 691 0.70 Yes Yes
Tjelvar O C 2008-11-21.43621 1.000E-05 06:32:47.300 1.500E-01 0.500 F -0.056 0.073 +30° 16' 54.00" 1.000E-01 0.500 F 0.091 0.086 19.9 V 0.70 0.25 o 691 0.23 Yes Yes
1998JH2 O C 2008-11-21.45148 1.000E-05 06:27:32.060 1.500E-01 0.500 F -0.070 -0.286 +28° 54' 57.10" 1.000E-01 0.500 F 0.179 -0.097 18.9 V 0.70 0.42 o 691 0.61 Yes Yes
Tjelvar O C 2008-11-21.45395 1.000E-05 06:32:44.710 1.500E-01 0.500 F -0.056 0.001 +30° 17' 02.90" 1.000E-01 0.500 F 0.091 -0.098 19.5 V 0.70 -0.15 o 691 0.20 Yes Yes
1998JH2 O C 2008-11-21.47267 1.000E-05 06:27:30.500 1.500E-01 0.500 F -0.070 -0.168 +28° 55' 05.40" 1.000E-01 0.500 F 0.179 -0.045 19.1 V 0.70 0.62 o 691 0.35 Yes Yes
Tjelvar O C 2008-11-21.47514 1.000E-05 06:32:41.590 1.500E-01 0.500 F -0.056 -0.433 +30° 17' 14.10" 1.000E-01 0.500 F 0.091 0.309 20.6 V 0.70 0.95 o 691 1.06 Yes Yes
1991VE O C 2008-11-21.48514 1.000E-05 07:06:52.790 1.500E-01 0.500 F -0.073 -0.459 +26° 59' 21.90" 1.000E-01 0.500 F 0.187 -0.406 19.5 V 0.70 0.31 o 691 1.23 Yes Yes
1991VE O C 2008-11-21.50628 1.000E-05 07:06:50.120 1.500E-01 0.500 F -0.073 -0.355 +26° 59' 37.80" 1.000E-01 0.500 F 0.187 -0.050 19.6 V 0.70 0.41 o 691 0.72 Yes Yes
1991VE O C 2008-11-21.52397 1.000E-05 07:06:47.890 1.500E-01 0.500 F -0.073 -0.243 +26° 59' 50.60" 1.000E-01 0.500 F 0.187 -0.193 19.8 V 0.70 0.61 o 691 0.62 Yes Yes
2000TV28 O C H 2008-11-22.26604 1.000E-05 05:34:25.250 1.500E-01 0.500 F -0.021 -0.197 +21° 37' 38.60" 1.000E-01 0.500 F 0.247 -0.125 21.3 V 0.70 0.37 o 691 0.49 Yes Yes
2000TV28 O C H 2008-11-22.28718 1.000E-05 05:34:25.280 1.500E-01 0.500 F -0.021 0.657 +21° 37' 47.40" 1.000E-01 0.500 F 0.247 0.930 20.9 V 0.70 -0.03 o 691 2.37 Yes Yes
Mithra O C H 2008-11-22.30487 1.000E-05 05:33:56.480 1.500E-01 0.500 F -0.078 0.287 +22° 58' 24.60" 1.000E-01 0.500 F 0.206 -0.462 21.3 V 0.70 0.36 o 691 1.09 Yes Yes
2000TV28 O C H 2008-11-22.30487 1.000E-05 05:34:25.230 1.500E-01 0.500 F -0.021 0.483 +21° 37' 53.10" 1.000E-01 0.500 F 0.247 0.239 20.8 V 0.70 -0.13 o 691 1.12 Yes Yes
2007AE12 O C t 2008-11-22.30758 1.000E-05 06:07:59.200 1.500E-01 0.500 F -0.106 0.483 +23° 26' 31.40" 1.000E-01 0.500 F 0.117 -0.460 18.3 V 0.70 0.82 o 691 1.36 Yes Yes
2007AE12 O C t 2008-11-22.32872 1.000E-05 06:07:51.640 1.500E-01 0.500 F -0.106 0.641 +23° 26' 21.40" 1.000E-01 0.500 F 0.117 -0.186 17.2 V 0.70 -0.28 o 691 1.36 Yes Yes
2007AE12 O C t 2008-11-22.34391 1.000E-05 06:07:46.160 1.500E-01 0.500 F -0.106 0.190 +23° 26' 13.20" 1.000E-01 0.500 F 0.117 -0.861 18.2 V 0.70 0.72 o 691 1.78 Yes Yes
2008WQ63 O C 2008-11-22.41787 1.000E-05 07:10:26.540 1.500E-01 0.500 F -0.098 -0.167 +24° 43' 55.60" 1.000E-01 0.500 F 0.214 0.145 20.4 V 0.70 -0.35 o 691 0.44 Yes Yes
2008WQ63 O C 2008-11-22.43556 1.000E-05 07:10:28.290 1.500E-01 0.500 F -0.098 -0.199 +24° 43' 54.70" 1.000E-01 0.500 F 0.214 0.042 20.6 V 0.70 -0.15 o 691 0.41 Yes Yes
2008WQ63 O C 2008-11-22.45326 1.000E-05 07:10:30.010 1.500E-01 0.500 F -0.098 -0.656 +24° 43' 53.50" 1.000E-01 0.500 F 0.214 -0.284 20.4 V 0.70 -0.34 o 691 1.44 Yes Yes
2008WB O C t 2008-11-23.11930 1.000E-05 02:34:13.430 1.500E-01 0.500 F -0.222 0.212 +16° 04' 21.90" 1.000E-01 0.500 F 0.309 0.168 20.8 V 0.70 0.96 o 691 0.58 Yes Yes
2005UP156 O C 2008-11-23.12711 1.000E-05 02:38:05.530 1.500E-01 0.500 F -0.134 -0.184 +10° 57' 03.60" 1.000E-01 0.500 F 0.184 -0.033 o 691 0.37 Yes No
2008WB O C t 2008-11-23.13253 1.000E-05 02:34:12.390 1.500E-01 0.500 F -0.222 0.424 +16° 02' 24.00" 1.000E-01 0.500 F 0.309 0.585 21.3 V 0.70 1.46 o 691 1.56 Yes Yes
2005UP156 O C 2008-11-23.14033 1.000E-05 02:38:04.730 1.500E-01 0.500 F -0.134 -0.116 +10° 56' 59.50" 1.000E-01 0.500 F 0.184 -0.319 o 691 0.68 Yes No

[1-200] [201-400] [401-600] [601-800] [801-1000] [1001-1200] [1201-1400] [1401-1600] [1601-1800] [1801-2000] [2001-2200] [2201-2400] [2401-2600] [2601-2800] [2801-3000] [3001-3200] [3201-3400] [3401-3600] [3601-3800] [3801-4000] [4001-4200] [4201-4400] [4401-4600] [4601-4800] [4801-5000] [5001-5200] [5201-5400] [5401-5600] [5601-5800] [5801-6000] [6001-6200] [6201-6400] [6401-6600] [6601-6800] [6801-7000] [7001-7200] [7201-7400] [7401-7600] [7601-7800] [7801-8000] [8001-8200] [8201-8400] [8401-8600] [8601-8800] [8801-9000] [9001-9200] [9201-9400] [9401-9600] [9601-9800] [9801-10000] [10001-10200] [10201-10400] [10401-10600] [10601-10800] [10801-11000] [11001-11200] [11201-11400] [11401-11600] [11601-11800] [11801-12000] [12001-12200] [12201-12400] [12401-12600] [12601-12800] [12801-13000] [13001-13200] [13201-13400] [13401-13600] [13601-13800] [13801-14000] [14001-14200] [14201-14400] [14401-14600] [14601-14800] [14801-15000] [15001-15200] [15201-15400] [15401-15600] [15601-15800] [15801-16000] [16001-16200] [16201-16400] [16401-16600] [16601-16800] [16801-17000] [17001-17200] [17201-17400] [17401-17600] [17601-17800] [17801-18000] [18001-18200] [18201-18400] [18401-18600] [18601-18800] [18801-19000] [19001-19200] [19201-19400] [19401-19600] [19601-19800] [19801-20000] [20001-20200] [20201-20400] [20401-20600] [20601-20800] [20801-21000] [21001-21200] [21201-21400] [21401-21600] [21601-21800] [21801-22000] [22001-22200] [22201-22400] [22401-22600] [22601-22800] [22801-23000] [23001-23200] [23201-23400] [23401-23600] [23601-23800] [23801-24000] [24001-24200] [24201-24400] [24401-24600] [24601-24800] [24801-25000] [25001-25200] [25201-25400] [25401-25600] [25601-25800] [25801-26000] [26001-26200] [26201-26400] [26401-26600] [26601-26800] [26801-27000] [27001-27200] [27201-27400] [27401-27600] [27601-27800] [27801-28000] [28001-28200] [28201-28400] [28401-28600] [28601-28800] [28801-29000] [29001-29200] [29201-29400] [29401-29600] [29601-29800] [29801-30000] [30001-30200] [30201-30400] [30401-30600] [30601-30800] [30801-31000] [31001-31200] [31201-31400] [31401-31600] [31601-31800] [31801-32000] [32001-32200] [32201-32400] [32401-32600] [32601-32800] [32801-33000] [33001-33200] [33201-33400] [33401-33600] [33601-33800] [33801-34000] [34001-34200] [34201-34400] [34401-34600] [34601-34800] [34801-35000] [35001-35200] [35201-35400] [35401-35600] [35601-35800] [35801-36000] [36001-36200] [36201-36400] [36401-36600] [36601-36800] [36801-37000] [37001-37200] [37201-37400] [37401-37600] [37601-37800] [37801-38000] [38001-38200] [38201-38400] [38401-38600] [38601-38800] [38801-39000] [39001-39200] [39201-39400] [39401-39600] [39601-39800] [39801-40000] [40001-40200] [40201-40400] [40401-40600] [40601-40800] [40801-41000] [41001-41200] [41201-41400] [41401-41600] [41601-41800] [41801-42000] [42001-42200] [42201-42400] [42401-42600] [42601-42800] [42801-43000] [43001-43200] [43201-43400] [43401-43600] [43601-43800] [43801-44000] [44001-44200] [44201-44400] [44401-44600] [44601-44800] [44801-45000] [45001-45200] [45201-45400] [45401-45600] [45601-45800] [45801-46000] [46001-46200] [46201-46400] [46401-46600] [46601-46800] [46801-47000] [47001-47200] [47201-47400] [47401-47600] [47601-47800] [47801-48000] [48001-48200] [48201-48400] [48401-48600] [48601-48800] [48801-49000] [49001-49200] [49201-49400] [49401-49600] [49601-49800] [49801-50000] [50001-50200] [50201-50400] [50401-50600] [50601-50741]